CheckWX is a tool to help pilots better visualize weather data.  It is not intended as a substitute for an official pre-flight weather briefing.

02:48:40 UTC

EFKK METAR
Kruunupyy Airport
Kokkola / Kruunupyy, Finland
Current

29 mins ago

EFKK 230220Z AUTO VRB02KT CAVOK 04/03 Q1023
Observed
Sep-23 @ 02:20 UTC
Wind
  • Variable at 2 KTS
Visibility
10,000+ meters
Flight Rules
VFR
Cloud Levels
  • Clear skies
Temperature
C / 39°F
Dewpoint
C / 37°F
Humidity
93%
Altimeter
30.21" Hg
Pressure
1022.92 hPa
Previous

59 mins ago

EFKK 230150Z AUTO 26004KT 230V290 9999 BKN048 04/02 Q1023
Observed
Sep-23 @ 01:50 UTC
Wind
  • 260° at 4 KTS
Visibility
10,000+ meters
Flight Rules
VFR
Cloud Levels
  • Broken at 4,800' AGL
Temperature
C / 39°F
Dewpoint
C / 36°F
Humidity
87%
Altimeter
30.21" Hg
Pressure
1022.92 hPa
Previous

1 hour ago

EFKK 230120Z AUTO 28003KT 240V310 9999 FEW034 BKN065 04/02 Q1023
Observed
Sep-23 @ 01:20 UTC
Wind
  • 280° at 3 KTS
Visibility
10,000+ meters
Flight Rules
VFR
Cloud Levels
  • Few at 3,400' AGL
  • Broken at 6,500' AGL
Temperature
C / 39°F
Dewpoint
C / 36°F
Humidity
87%
Altimeter
30.21" Hg
Pressure
1022.92 hPa